Time;durP1;ratioP1;P1;durP2;ratioP2;P2;SDS_P1;SDS_P2;PMS_P1;PMS_P2;Temp;Humidity;BMP_temperature;BMP_pressure;BME280_temperature;BME280_humidity;BME280_pressure;Samples;Min_cycle;Max_cycle;Signal;HPM_P1;HPM_P2
2023/10/25 00:00:17;;;;;;;4.60;4.30;;;10.10;99.90;;;;;;4995342;28;20260;-65
2023/10/25 00:02:43;;;;;;;6.03;5.43;;;10.10;99.90;;;;;;5003980;28;20205;-66
2023/10/25 00:05:09;;;;;;;4.43;4.07;;;10.20;99.90;;;;;;5006194;28;20285;-66
2023/10/25 00:07:34;;;;;;;4.87;4.37;;;10.20;99.90;;;;;;4988704;28;20180;-65
2023/10/25 00:10:01;;;;;;;5.73;5.33;;;10.20;99.90;;;;;;4994940;28;20184;-66
2023/10/25 00:12:27;;;;;;;5.37;4.77;;;10.20;99.90;;;;;;5002019;28;20339;-66
2023/10/25 00:14:53;;;;;;;5.07;4.57;;;10.20;99.90;;;;;;5000569;28;20519;-66
2023/10/25 00:17:18;;;;;;;4.50;4.10;;;10.20;99.90;;;;;;4994374;28;20441;-66
2023/10/25 00:19:44;;;;;;;5.50;5.10;;;10.10;99.90;;;;;;4996820;28;20438;-65
2023/10/25 00:22:09;;;;;;;5.80;5.40;;;10.10;99.90;;;;;;5005289;28;20549;-66
2023/10/25 00:24:35;;;;;;;5.33;4.87;;;10.10;99.90;;;;;;5000952;28;20183;-65
2023/10/25 00:27:00;;;;;;;5.13;4.70;;;10.10;99.90;;;;;;5000095;28;20616;-65
2023/10/25 00:29:26;;;;;;;6.17;5.67;;;10.00;99.90;;;;;;4997521;28;20203;-65
2023/10/25 00:31:51;;;;;;;9.70;5.60;;;10.00;99.90;;;;;;5000215;28;20222;-65
2023/10/25 00:34:17;;;;;;;5.30;4.80;;;10.00;99.90;;;;;;4999444;28;20660;-65
2023/10/25 00:36:42;;;;;;;5.63;4.97;;;9.90;99.90;;;;;;5000233;28;20199;-65
2023/10/25 00:39:08;;;;;;;5.57;5.07;;;9.80;99.90;;;;;;4996115;28;20261;-66
2023/10/25 00:41:33;;;;;;;5.17;4.70;;;9.80;99.90;;;;;;5004248;28;20590;-66
2023/10/25 00:43:59;;;;;;;6.03;5.53;;;9.80;99.90;;;;;;4995765;28;20180;-65
2023/10/25 00:46:26;;;;;;;6.23;5.63;;;9.90;99.90;;;;;;5008286;28;20642;-65
2023/10/25 00:48:58;;;;;;;7.37;5.60;;;9.90;99.90;;;;;;4993321;28;20272;-66
2023/10/25 00:51:26;;;;;;;5.70;5.30;;;9.90;99.90;;;;;;4997621;28;20462;-65
2023/10/25 00:53:54;;;;;;;5.97;5.47;;;10.00;99.90;;;;;;5002087;28;20427;-65
2023/10/25 00:56:23;;;;;;;6.40;5.47;;;10.00;99.90;;;;;;4993097;28;20504;-66
2023/10/25 00:58:52;;;;;;;8.60;7.70;;;10.00;99.90;;;;;;4994144;28;20521;-66
2023/10/25 01:01:19;;;;;;;6.27;5.67;;;10.00;99.90;;;;;;4998642;28;20445;-66
2023/10/25 01:03:45;;;;;;;5.93;5.43;;;10.00;99.90;;;;;;5001152;28;20438;-66
2023/10/25 01:06:10;;;;;;;7.30;6.70;;;10.00;99.90;;;;;;4992840;28;20450;-66
2023/10/25 01:08:36;;;;;;;7.20;6.70;;;10.00;99.90;;;;;;4999054;28;20186;-65
2023/10/25 01:11:03;;;;;;;6.43;5.93;;;9.90;99.90;;;;;;5003987;28;20206;-65
2023/10/25 01:13:28;;;;;;;5.97;5.47;;;9.90;99.90;;;;;;5004179;28;20205;-65
2023/10/25 01:15:54;;;;;;;6.73;6.13;;;9.80;99.90;;;;;;5002102;28;20455;-65
2023/10/25 01:18:20;;;;;;;7.00;6.30;;;9.80;99.90;;;;;;5001018;28;20542;-66
2023/10/25 01:20:45;;;;;;;7.90;7.20;;;9.80;99.90;;;;;;4996144;28;20182;-65
2023/10/25 01:23:11;;;;;;;7.47;6.73;;;9.70;99.90;;;;;;5004019;28;20259;-65
2023/10/25 01:25:40;;;;;;;6.57;5.97;;;9.70;99.90;;;;;;5012536;28;20461;-65
2023/10/25 01:28:06;;;;;;;6.63;6.13;;;9.70;99.90;;;;;;4995213;28;21027;-66
2023/10/25 01:30:32;;;;;;;6.23;5.80;;;9.80;99.90;;;;;;5005869;28;20513;-65
2023/10/25 01:33:01;;;;;;;7.30;5.93;;;9.80;99.90;;;;;;4996056;28;20199;-65
2023/10/25 01:35:26;;;;;;;6.57;5.90;;;9.80;99.90;;;;;;5001009;28;20229;-65
2023/10/25 01:37:52;;;;;;;6.63;6.00;;;9.80;99.90;;;;;;4999228;28;20932;-65
2023/10/25 01:40:18;;;;;;;6.00;5.50;;;9.80;99.90;;;;;;5000963;28;20201;-65
2023/10/25 01:42:44;;;;;;;5.67;5.27;;;9.80;99.90;;;;;;5002182;28;20213;-66
2023/10/25 01:45:11;;;;;;;5.37;4.97;;;9.70;99.90;;;;;;4991966;28;20199;-66
2023/10/25 01:47:37;;;;;;;5.27;4.77;;;9.70;99.90;;;;;;5002815;28;20437;-66
2023/10/25 01:50:03;;;;;;;5.53;5.13;;;9.70;99.90;;;;;;4981150;28;20978;-66
2023/10/25 01:52:28;;;;;;;5.73;5.20;;;9.60;99.90;;;;;;5005270;28;20461;-66
2023/10/25 01:54:54;;;;;;;5.57;5.07;;;9.60;99.90;;;;;;5000188;28;20181;-66
2023/10/25 01:57:19;;;;;;;4.87;4.57;;;9.60;99.90;;;;;;5000423;28;20184;-66
2023/10/25 01:59:45;;;;;;;5.50;4.97;;;9.60;99.90;;;;;;4999116;28;20237;-65
2023/10/25 02:02:11;;;;;;;4.67;4.27;;;9.60;99.90;;;;;;4995655;28;20183;-65
2023/10/25 02:04:37;;;;;;;5.03;4.57;;;9.60;99.90;;;;;;5004025;28;20484;-65
2023/10/25 02:07:03;;;;;;;5.30;4.90;;;9.60;99.90;;;;;;4992260;28;20486;-65
2023/10/25 02:09:29;;;;;;;5.10;4.60;;;9.60;99.90;;;;;;4990716;28;20195;-65
2023/10/25 02:11:55;;;;;;;5.83;5.33;;;9.50;99.90;;;;;;5005204;28;20992;-66
2023/10/25 02:14:20;;;;;;;5.70;5.00;;;9.60;99.90;;;;;;5001396;28;20521;-65
2023/10/25 02:16:46;;;;;;;5.67;5.17;;;9.60;99.90;;;;;;4998799;28;20278;-66
2023/10/25 02:19:12;;;;;;;6.53;5.90;;;9.60;99.90;;;;;;4991818;28;20727;-66
2023/10/25 02:21:37;;;;;;;5.80;5.30;;;9.60;99.90;;;;;;4993997;28;20649;-65
2023/10/25 02:24:04;;;;;;;8.80;7.20;;;9.70;99.90;;;;;;4998310;28;20187;-66
2023/10/25 02:26:29;;;;;;;5.33;4.93;;;9.70;99.90;;;;;;4995852;28;20219;-66
2023/10/25 02:28:55;;;;;;;5.50;4.57;;;9.60;99.90;;;;;;4992191;28;20445;-66
2023/10/25 02:31:21;;;;;;;5.23;4.83;;;9.60;99.90;;;;;;4992868;28;20207;-65
2023/10/25 02:33:46;;;;;;;5.80;5.30;;;9.60;99.90;;;;;;5006285;28;20191;-66
2023/10/25 02:36:12;;;;;;;6.03;5.57;;;9.60;99.90;;;;;;4999815;28;20253;-65
2023/10/25 02:38:38;;;;;;;5.10;4.70;;;9.60;99.90;;;;;;5000020;28;20590;-65
2023/10/25 02:41:03;;;;;;;5.60;5.20;;;9.50;99.90;;;;;;4996761;28;20180;-65
2023/10/25 02:43:29;;;;;;;5.90;5.40;;;9.50;99.90;;;;;;5010735;28;20190;-66
2023/10/25 02:46:07;;;;;;;6.10;5.60;;;9.50;99.90;;;;;;4995801;28;20207;-66
2023/10/25 02:48:33;;;;;;;6.07;5.37;;;9.40;99.90;;;;;;4996007;28;20183;-65
2023/10/25 02:50:59;;;;;;;7.07;6.37;;;9.40;99.90;;;;;;5001676;28;20462;-65
2023/10/25 02:53:25;;;;;;;6.20;5.67;;;9.40;99.90;;;;;;5023247;28;20171;-65
2023/10/25 02:55:50;;;;;;;6.67;6.17;;;9.30;99.90;;;;;;5005943;28;20461;-65
2023/10/25 02:58:16;;;;;;;6.10;5.70;;;9.30;99.90;;;;;;5007794;28;20171;-66
2023/10/25 03:00:41;;;;;;;5.90;5.40;;;9.30;99.90;;;;;;4997311;28;20254;-65
2023/10/25 03:03:07;;;;;;;5.43;4.93;;;9.30;99.90;;;;;;5005375;28;20182;-65
2023/10/25 03:05:33;;;;;;;5.97;5.37;;;9.30;99.90;;;;;;4995372;28;20227;-66
2023/10/25 03:07:59;;;;;;;6.33;5.83;;;9.30;99.90;;;;;;4998846;28;20226;-66
2023/10/25 03:10:24;;;;;;;4.77;4.47;;;9.30;99.90;;;;;;4999270;28;20168;-65
2023/10/25 03:12:50;;;;;;;6.13;5.63;;;9.30;99.90;;;;;;5006007;28;20268;-65
2023/10/25 03:15:16;;;;;;;6.17;5.77;;;9.30;99.90;;;;;;4998370;28;20608;-65
2023/10/25 03:17:41;;;;;;;6.63;6.00;;;9.30;99.90;;;;;;5000211;28;20182;-65
2023/10/25 03:20:07;;;;;;;5.97;5.37;;;9.30;99.90;;;;;;5006545;28;20648;-65
2023/10/25 03:22:32;;;;;;;5.53;5.00;;;9.30;99.90;;;;;;5004398;28;20272;-66
2023/10/25 03:24:58;;;;;;;5.97;5.47;;;9.30;99.90;;;;;;5008025;28;20183;-65
2023/10/25 03:27:24;;;;;;;5.57;5.17;;;9.30;99.90;;;;;;4995049;28;20183;-65
2023/10/25 03:29:49;;;;;;;6.50;6.00;;;9.20;99.90;;;;;;4994965;28;20649;-65
2023/10/25 03:32:15;;;;;;;6.17;5.67;;;9.20;99.90;;;;;;5002275;28;20241;-66
2023/10/25 03:34:43;;;;;;;6.10;5.50;;;9.20;99.90;;;;;;5003491;28;20197;-65
2023/10/25 03:37:10;;;;;;;6.67;6.00;;;9.10;99.90;;;;;;4995386;28;20180;-66
2023/10/25 03:39:36;;;;;;;7.40;6.27;;;9.10;99.90;;;;;;5002882;28;20426;-65
2023/10/25 03:42:01;;;;;;;6.87;6.27;;;9.10;99.90;;;;;;4993586;28;20477;-65
2023/10/25 03:44:27;;;;;;;8.17;7.40;;;9.10;99.90;;;;;;5004350;28;20422;-66
2023/10/25 03:46:54;;;;;;;8.70;7.90;;;9.00;99.90;;;;;;5004510;28;20246;-65
2023/10/25 03:49:20;;;;;;;7.43;6.83;;;9.00;99.90;;;;;;4994506;28;20171;-65
2023/10/25 03:51:45;;;;;;;9.00;8.20;;;8.90;99.90;;;;;;4998632;28;20508;-65
2023/10/25 03:54:11;;;;;;;9.17;7.53;;;8.90;99.90;;;;;;4998768;28;20706;-65
2023/10/25 03:56:36;;;;;;;8.07;7.27;;;8.80;99.90;;;;;;4998117;28;20194;-65
2023/10/25 03:59:02;;;;;;;8.10;7.30;;;8.80;99.90;;;;;;4999344;28;20179;-66
2023/10/25 04:01:27;;;;;;;8.07;7.40;;;8.80;99.90;;;;;;4994964;28;20184;-66
2023/10/25 04:03:53;;;;;;;8.37;7.57;;;8.80;99.90;;;;;;4999953;28;20175;-65
2023/10/25 04:06:18;;;;;;;8.83;7.93;;;8.80;99.90;;;;;;4996659;28;20565;-66
2023/10/25 04:08:44;;;;;;;7.70;7.00;;;8.80;99.90;;;;;;4994471;28;20238;-65
2023/10/25 04:11:09;;;;;;;8.87;8.07;;;8.70;99.90;;;;;;4990917;28;20210;-66
2023/10/25 04:13:35;;;;;;;7.87;7.13;;;8.70;99.90;;;;;;5001924;28;20175;-66
2023/10/25 04:16:05;;;;;;;8.00;7.30;;;8.70;99.90;;;;;;4997592;28;20656;-66
2023/10/25 04:18:32;;;;;;;8.27;7.57;;;8.70;99.90;;;;;;5006877;28;20687;-66
2023/10/25 04:20:59;;;;;;;7.77;7.07;;;8.70;99.90;;;;;;5009532;28;20434;-65
2023/10/25 04:23:26;;;;;;;7.93;7.23;;;8.70;99.90;;;;;;5001524;28;20456;-65
2023/10/25 04:25:52;;;;;;;6.93;6.33;;;8.60;99.90;;;;;;5000187;28;20546;-65
2023/10/25 04:28:18;;;;;;;7.70;7.03;;;8.60;99.90;;;;;;5001644;28;20444;-66
2023/10/25 04:30:44;;;;;;;7.90;7.10;;;8.50;99.90;;;;;;5003769;28;20448;-66
2023/10/25 04:33:11;;;;;;;6.47;5.77;;;8.50;99.90;;;;;;4996870;28;20430;-65
2023/10/25 04:35:36;;;;;;;7.23;6.63;;;8.50;99.90;;;;;;5004466;28;20511;-66
2023/10/25 04:38:02;;;;;;;7.00;6.40;;;8.50;99.90;;;;;;5004470;28;20881;-65
2023/10/25 04:40:27;;;;;;;6.27;5.70;;;8.50;99.90;;;;;;5004706;28;20182;-65
2023/10/25 04:42:56;;;;;;;6.57;6.03;;;8.50;99.90;;;;;;4998035;28;20228;-66
2023/10/25 04:45:22;;;;;;;7.60;6.53;;;8.40;99.90;;;;;;5002627;28;20199;-65
2023/10/25 04:47:50;;;;;;;5.97;5.47;;;8.40;99.90;;;;;;5000238;28;20444;-66
2023/10/25 04:50:17;;;;;;;7.20;6.50;;;8.40;99.90;;;;;;5002469;28;20812;-66
2023/10/25 04:52:42;;;;;;;6.47;5.43;;;8.40;99.90;;;;;;4992236;28;20570;-65
2023/10/25 04:55:10;;;;;;;6.03;5.53;;;8.40;99.90;;;;;;5001656;28;20858;-65
2023/10/25 04:57:35;;;;;;;6.10;5.50;;;8.30;99.90;;;;;;4993599;28;20176;-65
2023/10/25 05:00:01;;;;;;;6.13;5.53;;;8.30;99.90;;;;;;4999085;28;20846;-66
2023/10/25 05:02:26;;;;;;;6.33;5.83;;;8.30;99.90;;;;;;4996883;28;20666;-66
2023/10/25 05:04:52;;;;;;;7.67;6.97;;;8.30;99.90;;;;;;4997486;28;20829;-65
2023/10/25 05:07:18;;;;;;;7.20;6.27;;;8.30;99.90;;;;;;5001931;28;20197;-65
2023/10/25 05:09:44;;;;;;;8.10;7.40;;;8.30;99.90;;;;;;5004249;28;20175;-65
2023/10/25 05:12:12;;;;;;;7.57;6.73;;;8.30;99.90;;;;;;4994149;28;20583;-66
2023/10/25 05:14:38;;;;;;;8.00;7.20;;;8.20;99.90;;;;;;4995940;28;20206;-66
2023/10/25 05:17:06;;;;;;;7.20;6.57;;;8.20;99.90;;;;;;4997369;28;21020;-66
2023/10/25 05:19:32;;;;;;;7.47;6.87;;;8.20;99.90;;;;;;5003645;28;20168;-66
2023/10/25 05:22:01;;;;;;;6.87;6.27;;;8.10;99.90;;;;;;5003177;28;20854;-66
2023/10/25 05:24:27;;;;;;;7.40;6.70;;;8.20;99.90;;;;;;4994072;28;20449;-66
2023/10/25 05:26:53;;;;;;;7.20;5.70;;;8.10;99.90;;;;;;4997520;22;20578;-67
2023/10/25 05:29:18;;;;;;;5.40;4.97;;;8.10;99.90;;;;;;4973388;28;20172;-68
2023/10/25 05:31:44;;;;;;;7.33;6.30;;;8.10;99.90;;;;;;4973317;28;20200;-68
2023/10/25 05:34:10;;;;;;;6.30;5.80;;;8.10;99.90;;;;;;4972648;28;20187;-67
2023/10/25 05:36:38;;;;;;;10.10;7.80;;;8.10;99.90;;;;;;4991060;28;20656;-68
2023/10/25 05:39:04;;;;;;;7.30;6.60;;;8.00;99.90;;;;;;4999886;28;20183;-68
2023/10/25 05:41:30;;;;;;;6.67;5.90;;;8.00;99.90;;;;;;5002375;28;20449;-68
2023/10/25 05:44:02;;;;;;;6.47;5.90;;;8.00;99.90;;;;;;4999065;28;20857;-67
2023/10/25 05:46:27;;;;;;;6.57;6.07;;;8.00;99.90;;;;;;4999947;28;20454;-68
2023/10/25 05:48:54;;;;;;;7.67;6.43;;;8.00;99.90;;;;;;4999649;28;20911;-68
2023/10/25 05:51:20;;;;;;;6.90;6.30;;;8.00;99.90;;;;;;4994811;28;20290;-68
2023/10/25 05:53:47;;;;;;;7.60;6.90;;;8.00;99.90;;;;;;4995912;28;20558;-68
2023/10/25 05:56:13;;;;;;;10.10;8.27;;;8.10;99.90;;;;;;5005125;28;20199;-68
2023/10/25 05:58:39;;;;;;;8.20;7.40;;;8.10;99.90;;;;;;4994869;28;20437;-68
2023/10/25 06:01:08;;;;;;;10.47;7.87;;;8.10;99.90;;;;;;5003802;28;20432;-68
2023/10/25 06:03:35;;;;;;;9.70;8.70;;;8.10;99.90;;;;;;5011720;28;20546;-68
2023/10/25 06:06:01;;;;;;;9.67;8.63;;;8.10;99.90;;;;;;5013632;28;20438;-68
2023/10/25 06:08:27;;;;;;;9.23;8.23;;;8.10;99.90;;;;;;5016305;28;20425;-67
2023/10/25 06:10:53;;;;;;;9.63;8.70;;;8.10;99.90;;;;;;5008116;28;20433;-67
2023/10/25 06:13:19;;;;;;;11.17;9.77;;;8.10;99.90;;;;;;4995868;28;20435;-68
2023/10/25 06:15:45;;;;;;;8.70;7.93;;;8.10;99.90;;;;;;4996491;28;20446;-67
2023/10/25 06:18:11;;;;;;;9.93;7.43;;;8.10;99.90;;;;;;4996351;28;20660;-68
2023/10/25 06:20:37;;;;;;;7.33;6.50;;;8.20;99.90;;;;;;4988481;28;20259;-67
2023/10/25 06:23:03;;;;;;;7.73;7.07;;;8.20;99.90;;;;;;4993158;28;20517;-68
2023/10/25 06:25:31;;;;;;;7.90;7.20;;;8.30;99.90;;;;;;4996228;28;20266;-68
2023/10/25 06:27:59;;;;;;;8.03;7.33;;;8.30;99.90;;;;;;4996296;28;20168;-68
2023/10/25 06:30:26;;;;;;;8.10;7.30;;;8.30;99.90;;;;;;4995575;28;20434;-68
2023/10/25 06:32:52;;;;;;;7.53;6.83;;;8.30;99.90;;;;;;4995828;28;20713;-68
2023/10/25 06:35:17;;;;;;;8.27;7.57;;;8.30;99.90;;;;;;4996156;28;20418;-68
2023/10/25 06:37:43;;;;;;;8.20;7.50;;;8.40;99.90;;;;;;4996126;28;20452;-68
2023/10/25 06:40:09;;;;;;;8.80;7.97;;;8.40;99.90;;;;;;4995852;28;20270;-68
2023/10/25 06:42:35;;;;;;;9.27;8.33;;;8.40;99.90;;;;;;4995674;28;20577;-68
2023/10/25 06:45:02;;;;;;;9.30;8.40;;;8.40;99.90;;;;;;4996069;28;20904;-68
2023/10/25 06:47:28;;;;;;;9.13;8.23;;;8.60;99.90;;;;;;4996196;28;20648;-70
2023/10/25 06:49:54;;;;;;;9.37;8.30;;;8.80;99.90;;;;;;4989861;28;20536;-68
2023/10/25 06:52:20;;;;;;;10.60;9.50;;;9.00;99.90;;;;;;4992478;28;20521;-68
2023/10/25 06:54:47;;;;;;;9.57;8.60;;;9.10;99.90;;;;;;4995570;28;20462;-68
2023/10/25 06:57:13;;;;;;;7.70;6.70;;;9.20;99.90;;;;;;4995222;28;20200;-67
2023/10/25 06:59:39;;;;;;;10.70;8.13;;;9.20;99.90;;;;;;4994353;28;20803;-69
2023/10/25 07:02:40;;;;;;;8.30;7.50;;;9.40;99.90;;;;;;4995444;28;20894;-68
2023/10/25 07:05:11;;;;;;;8.40;7.57;;;9.60;99.90;;;;;;4993853;28;20907;-68
2023/10/25 07:07:37;;;;;;;9.17;8.30;;;9.80;99.90;;;;;;4995355;28;20437;-68
2023/10/25 07:10:03;;;;;;;8.47;7.60;;;9.90;99.90;;;;;;4995509;28;20453;-69
2023/10/25 07:12:32;;;;;;;7.20;6.50;;;10.10;99.90;;;;;;4995314;28;20544;-68
2023/10/25 07:14:57;;;;;;;7.17;6.47;;;10.30;99.90;;;;;;4995097;28;20480;-69
2023/10/25 07:17:24;;;;;;;7.60;6.77;;;10.70;99.90;;;;;;4994391;28;20430;-68
2023/10/25 07:19:50;;;;;;;6.73;6.13;;;10.90;99.90;;;;;;4995315;28;20640;-68
2023/10/25 07:22:15;;;;;;;6.47;5.87;;;11.10;99.90;;;;;;4995243;28;20450;-68
2023/10/25 07:24:41;;;;;;;6.97;6.23;;;11.30;99.90;;;;;;4995030;28;20259;-68
2023/10/25 07:27:06;;;;;;;6.17;5.57;;;11.40;99.90;;;;;;4994772;28;20257;-69
2023/10/25 07:29:32;;;;;;;8.00;6.67;;;11.70;99.90;;;;;;4995136;28;20263;-68
2023/10/25 07:31:57;;;;;;;7.90;6.20;;;12.00;99.90;;;;;;4995132;28;20691;-68
2023/10/25 07:34:23;;;;;;;6.60;6.00;;;12.50;99.90;;;;;;4994752;28;20174;-68
2023/10/25 07:36:48;;;;;;;6.10;5.50;;;12.80;99.90;;;;;;4994702;28;20253;-68
2023/10/25 07:39:15;;;;;;;5.57;5.13;;;13.30;99.90;;;;;;4995038;28;20181;-68
2023/10/25 07:41:41;;;;;;;6.63;6.10;;;13.50;99.90;;;;;;4994950;28;20222;-68
2023/10/25 07:44:06;;;;;;;7.70;5.87;;;14.00;99.90;;;;;;4994636;28;20426;-68
2023/10/25 07:46:32;;;;;;;5.47;5.00;;;14.10;99.90;;;;;;4994558;28;20459;-68
2023/10/25 07:48:57;;;;;;;5.23;4.80;;;13.90;99.90;;;;;;4991618;28;20184;-68
2023/10/25 07:51:23;;;;;;;5.00;4.60;;;13.70;99.90;;;;;;4982623;28;20235;-68
2023/10/25 07:53:48;;;;;;;5.30;5.00;;;13.70;99.90;;;;;;4974947;28;20264;-67
2023/10/25 07:56:14;;;;;;;4.83;4.43;;;13.40;99.90;;;;;;4975197;28;20199;-68
2023/10/25 07:58:40;;;;;;;4.73;4.27;;;13.00;99.90;;;;;;4975215;28;20607;-68
2023/10/25 08:01:05;;;;;;;6.53;5.93;;;12.50;99.90;;;;;;4987606;28;20586;-68
2023/10/25 08:03:31;;;;;;;5.13;4.73;;;12.20;99.90;;;;;;4994007;28;20180;-68
2023/10/25 08:05:56;;;;;;;4.77;4.40;;;12.00;99.90;;;;;;4994373;28;20195;-68
2023/10/25 08:08:22;;;;;;;5.73;5.00;;;11.90;99.90;;;;;;4994547;28;20180;-68
2023/10/25 08:10:47;;;;;;;5.77;5.27;;;12.00;99.90;;;;;;4983596;28;20189;-68
2023/10/25 08:13:13;;;;;;;5.57;5.17;;;12.40;99.90;;;;;;4988915;28;20186;-68
2023/10/25 08:15:39;;;;;;;5.10;4.80;;;13.10;99.90;;;;;;4994360;28;20657;-68
2023/10/25 08:18:04;;;;;;;4.87;4.07;;;13.90;99.90;;;;;;4994362;28;20696;-68
2023/10/25 08:20:35;;;;;;;3.90;3.60;;;14.40;99.90;;;;;;4994273;28;20171;-68
2023/10/25 08:23:01;;;;;;;5.13;4.77;;;14.20;99.90;;;;;;4993613;28;20179;-68
2023/10/25 08:25:27;;;;;;;5.23;4.80;;;14.10;99.90;;;;;;4990139;28;20454;-68
2023/10/25 08:27:52;;;;;;;5.57;5.07;;;13.70;99.90;;;;;;4985341;28;20428;-68
2023/10/25 08:30:20;;;;;;;4.90;4.50;;;13.60;99.90;;;;;;4974650;28;20219;-68
2023/10/25 08:32:46;;;;;;;4.80;4.40;;;13.40;99.90;;;;;;4974223;28;20220;-69
2023/10/25 08:35:12;;;;;;;5.20;4.80;;;13.40;99.90;;;;;;4990168;28;20657;-68
2023/10/25 08:37:37;;;;;;;4.83;4.50;;;13.30;99.90;;;;;;4994086;28;20172;-68
2023/10/25 08:40:03;;;;;;;5.17;4.67;;;13.30;99.90;;;;;;4994003;28;20577;-68
2023/10/25 08:42:29;;;;;;;4.57;4.17;;;13.20;99.90;;;;;;4993898;28;20172;-68
2023/10/25 08:44:54;;;;;;;9.43;4.53;;;13.00;99.90;;;;;;4993490;28;20423;-68
2023/10/25 08:47:20;;;;;;;5.00;4.60;;;12.90;99.90;;;;;;4993459;28;20253;-68
2023/10/25 08:49:45;;;;;;;5.13;4.73;;;12.70;99.90;;;;;;4993567;28;20180;-69
2023/10/25 08:52:11;;;;;;;4.83;4.43;;;12.60;99.90;;;;;;4993012;28;20762;-68
2023/10/25 08:54:37;;;;;;;4.70;4.40;;;12.50;99.90;;;;;;4993335;28;20207;-68
2023/10/25 08:57:07;;;;;;;4.70;4.30;;;12.50;99.90;;;;;;4993569;28;20270;-69
2023/10/25 08:59:46;;;;;;;6.87;6.20;;;12.40;99.90;;;;;;4993477;28;20481;-68
2023/10/25 09:02:12;;;;;;;4.47;4.07;;;12.50;99.90;;;;;;4993290;28;20423;-68
2023/10/25 09:04:56;;;;;;;5.33;4.93;;;12.40;99.90;;;;;;4993316;28;20429;-69
2023/10/25 09:07:33;;;;;;;5.30;4.90;;;12.30;99.90;;;;;;4993571;28;20443;-68
2023/10/25 09:09:59;;;;;;;5.03;4.63;;;12.30;99.90;;;;;;4993240;28;21044;-68
2023/10/25 09:12:25;;;;;;;5.20;4.80;;;12.20;99.90;;;;;;4992985;28;20458;-68
2023/10/25 09:14:51;;;;;;;4.90;4.50;;;12.20;99.90;;;;;;4993256;28;20426;-68
2023/10/25 09:17:17;;;;;;;5.10;4.60;;;12.30;99.90;;;;;;4993145;28;20443;-68
2023/10/25 09:19:48;;;;;;;5.60;5.10;;;12.30;99.90;;;;;;4992879;28;20508;-68
2023/10/25 09:22:21;;;;;;;5.60;4.30;;;12.30;99.90;;;;;;4993286;28;20842;-68
2023/10/25 09:24:48;;;;;;;4.93;4.53;;;12.20;99.90;;;;;;4992899;28;20430;-68
2023/10/25 09:27:13;;;;;;;6.03;5.27;;;12.10;99.90;;;;;;4992855;28;20466;-68
2023/10/25 09:29:39;;;;;;;6.47;5.77;;;12.00;99.90;;;;;;4993156;28;20485;-68
2023/10/25 09:32:06;;;;;;;6.63;6.03;;;11.90;99.90;;;;;;4986813;28;20199;-68
2023/10/25 09:34:34;;;;;;;7.53;6.50;;;11.80;99.90;;;;;;4992864;28;20618;-68
2023/10/25 09:37:00;;;;;;;8.27;6.97;;;11.70;99.90;;;;;;4992769;28;20443;-68
2023/10/25 09:39:26;;;;;;;6.80;5.43;;;11.80;99.90;;;;;;4981675;28;20494;-68
2023/10/25 09:41:53;;;;;;;5.50;5.20;;;11.70;99.90;;;;;;4992163;28;20474;-68
2023/10/25 09:44:22;;;;;;;6.20;5.67;;;11.80;99.90;;;;;;4992162;28;20431;-68
2023/10/25 09:46:51;;;;;;;6.67;6.07;;;11.80;99.90;;;;;;4992541;28;20881;-68
2023/10/25 09:49:23;;;;;;;6.30;5.70;;;11.90;99.90;;;;;;4992596;28;20450;-68
2023/10/25 09:52:06;;;;;;;7.40;5.87;;;12.00;99.90;;;;;;4992631;28;20498;-68
2023/10/25 09:54:37;;;;;;;5.50;5.10;;;12.10;99.90;;;;;;4992377;28;20426;-67
2023/10/25 09:57:04;;;;;;;5.73;5.33;;;12.30;99.90;;;;;;4992151;28;20906;-67
2023/10/25 09:59:33;;;;;;;5.00;4.60;;;12.40;99.90;;;;;;4992384;28;20433;-67
2023/10/25 10:02:01;;;;;;;4.63;4.23;;;12.60;99.90;;;;;;4992571;28;20423;-67
2023/10/25 10:04:54;;;;;;;4.73;4.33;;;12.80;99.90;;;;;;4992176;28;20465;-67
2023/10/25 10:07:59;;;;;;;4.10;3.80;;;13.20;99.90;;;;;;4992956;28;20435;-67
2023/10/25 10:10:52;;;;;;;4.50;4.03;;;13.40;99.90;;;;;;4973015;28;20426;-68
2023/10/25 10:13:19;;;;;;;4.33;4.03;;;13.60;99.90;;;;;;4971204;28;20939;-67
2023/10/25 10:16:04;;;;;;;4.03;3.73;;;13.60;99.90;;;;;;4992308;28;20434;-67
2023/10/25 10:18:34;;;;;;;3.33;3.13;;;13.70;99.90;;;;;;4992191;28;20772;-67
2023/10/25 10:21:01;;;;;;;3.30;3.00;;;13.70;99.90;;;;;;4992328;28;20422;-67
2023/10/25 10:23:40;;;;;;;3.20;3.00;;;13.50;99.90;;;;;;4991945;28;20497;-67
2023/10/25 10:26:08;;;;;;;3.10;2.90;;;13.40;99.90;;;;;;4992025;28;20469;-67
2023/10/25 10:28:46;;;;;;;3.33;3.00;;;13.40;99.90;;;;;;4992440;28;20414;-67
2023/10/25 10:31:12;;;;;;;3.40;3.10;;;13.30;99.90;;;;;;4992269;28;20461;-69
2023/10/25 10:33:46;;;;;;;3.57;3.27;;;13.40;99.90;;;;;;4991499;28;20437;-66
2023/10/25 10:36:26;;;;;;;3.63;3.43;;;13.60;99.90;;;;;;4992285;28;20451;-67
2023/10/25 10:39:14;;;;;;;2.70;2.50;;;13.70;99.90;;;;;;4992310;28;20797;-66
2023/10/25 10:41:41;;;;;;;2.40;2.20;;;13.70;99.90;;;;;;4988822;28;20991;-66
2023/10/25 10:44:07;;;;;;;3.33;2.97;;;13.90;99.90;;;;;;4991185;28;20437;-67
2023/10/25 10:46:44;;;;;;;3.20;2.93;;;14.10;99.90;;;;;;4992158;28;20438;-67
2023/10/25 10:49:13;;;;;;;4.10;3.70;;;14.00;99.90;;;;;;4992224;28;20367;-66
2023/10/25 10:51:39;;;;;;;2.30;2.20;;;14.10;99.90;;;;;;4991976;28;20454;-66
2023/10/25 10:54:06;;;;;;;3.77;3.47;;;14.20;99.90;;;;;;4990949;28;20446;-67
2023/10/25 10:56:33;;;;;;;2.30;2.10;;;14.40;99.90;;;;;;4995581;28;20434;-67
2023/10/25 10:59:00;;;;;;;2.57;2.30;;;14.50;99.90;;;;;;4995617;28;20421;-66
2023/10/25 11:01:26;;;;;;;2.87;2.67;;;14.40;99.90;;;;;;4995632;28;20504;-66
2023/10/25 11:03:52;;;;;;;2.27;2.17;;;14.30;99.90;;;;;;4995132;28;20879;-66
2023/10/25 11:06:21;;;;;;;2.57;2.27;;;14.10;99.90;;;;;;4995600;28;20525;-66
2023/10/25 11:08:46;;;;;;;2.47;2.30;;;14.10;99.90;;;;;;4995500;28;20163;-66
2023/10/25 11:11:13;;;;;;;2.60;2.40;;;14.10;99.90;;;;;;4995350;28;20458;-66
2023/10/25 11:13:38;;;;;;;2.30;2.20;;;14.10;99.90;;;;;;4995030;28;20172;-66
2023/10/25 11:16:10;;;;;;;3.20;2.47;;;14.10;99.90;;;;;;4995249;28;20496;-66
2023/10/25 11:18:35;;;;;;;2.50;2.30;;;14.20;99.90;;;;;;4995380;28;20183;-66
2023/10/25 11:21:01;;;;;;;2.23;2.03;;;14.40;99.90;;;;;;4995084;28;20414;-66
2023/10/25 11:23:27;;;;;;;2.83;2.63;;;14.50;99.90;;;;;;4994961;28;20199;-66
2023/10/25 11:25:54;;;;;;;2.53;2.37;;;14.70;99.90;;;;;;4994833;28;20951;-66
2023/10/25 11:28:20;;;;;;;5.23;2.53;;;15.70;99.90;;;;;;4995265;28;20963;-66
2023/10/25 11:30:48;;;;;;;2.80;2.60;;;16.70;99.90;;;;;;4994984;28;20466;-66
2023/10/25 11:33:15;;;;;;;4.07;2.37;;;16.70;99.90;;;;;;4994849;28;20179;-65
2023/10/25 11:35:42;;;;;;;1.93;1.83;;;16.50;99.90;;;;;;4995154;28;20446;-66
2023/10/25 11:38:09;;;;;;;2.13;2.03;;;16.50;99.90;;;;;;4994924;28;20780;-65
2023/10/25 11:40:46;;;;;;;2.53;2.33;;;16.10;99.90;;;;;;4994996;28;20418;-66
2023/10/25 11:43:13;;;;;;;7.97;3.47;;;15.90;99.90;;;;;;4994777;28;20993;-66
2023/10/25 11:45:40;;;;;;;2.20;2.10;;;15.90;99.90;;;;;;4994940;28;20585;-67
2023/10/25 11:48:07;;;;;;;2.13;2.03;;;16.10;99.90;;;;;;4994342;28;20495;-66
2023/10/25 11:50:33;;;;;;;2.50;2.30;;;16.50;99.90;;;;;;4994710;28;20459;-66
2023/10/25 11:52:59;;;;;;;2.83;2.63;;;17.10;99.90;;;;;;4994342;28;20454;-66
2023/10/25 11:55:27;;;;;;;2.37;2.17;;;18.40;99.90;;;;;;4992922;28;20442;-67
2023/10/25 11:57:53;;;;;;;2.30;2.10;;;21.00;99.90;;;;;;4989921;28;20497;-66
2023/10/25 12:00:18;;;;;;;3.60;2.00;;;21.10;99.90;;;;;;4994582;28;20477;-66
2023/10/25 12:02:44;;;;;;;1.50;1.40;;;19.60;99.90;;;;;;4993938;28;20431;-66
2023/10/25 12:05:10;;;;;;;4.63;1.57;;;18.10;99.90;;;;;;4993706;28;20180;-66
2023/10/25 12:07:36;;;;;;;2.70;1.77;;;17.10;99.90;;;;;;4994210;28;20236;-66
2023/10/25 12:10:04;;;;;;;2.10;1.50;;;16.50;99.90;;;;;;4994409;28;20425;-66
2023/10/25 12:12:30;;;;;;;2.53;1.63;;;16.20;99.90;;;;;;4993950;28;20195;-66
2023/10/25 12:14:56;;;;;;;1.77;1.53;;;16.00;99.90;;;;;;4993695;28;20437;-66
2023/10/25 12:17:21;;;;;;;3.33;2.60;;;15.90;99.90;;;;;;4994028;28;20439;-66
2023/10/25 12:19:49;;;;;;;1.80;1.70;;;15.80;99.90;;;;;;4994086;28;20171;-66
2023/10/25 12:22:15;;;;;;;2.63;1.70;;;15.70;99.90;;;;;;4993868;28;20262;-66
2023/10/25 12:24:42;;;;;;;2.07;1.90;;;15.70;99.90;;;;;;4993657;28;20426;-66
2023/10/25 12:27:08;;;;;;;1.10;1.10;;;15.70;99.90;;;;;;4993627;28;20582;-66
2023/10/25 12:29:35;;;;;;;1.40;1.30;;;15.70;99.90;;;;;;4993806;28;20461;-66
2023/10/25 12:32:00;;;;;;;4.40;1.70;;;15.70;99.90;;;;;;4993823;28;20968;-66
2023/10/25 12:34:26;;;;;;;2.40;1.60;;;15.80;99.90;;;;;;4993664;28;20423;-66
2023/10/25 12:36:52;;;;;;;2.20;1.50;;;16.40;99.90;;;;;;4993498;28;20857;-66
2023/10/25 12:39:18;;;;;;;1.93;1.83;;;16.70;99.90;;;;;;4993952;28;20172;-66
2023/10/25 12:41:46;;;;;;;1.40;1.30;;;16.60;99.90;;;;;;4994047;28;20519;-67
2023/10/25 12:44:13;;;;;;;1.60;1.50;;;16.40;99.90;;;;;;4993504;28;20427;-66
2023/10/25 12:46:39;;;;;;;2.10;1.90;;;16.20;99.90;;;;;;4993753;28;20443;-66
2023/10/25 12:49:05;;;;;;;1.97;1.87;;;15.70;99.90;;;;;;4989608;28;20435;-66